createdAt,value
2022-09-05T00:00:13.408Z,0.00
2022-09-05T00:01:13.231Z,0.00
2022-09-05T00:02:12.930Z,0.00
2022-09-05T00:03:14.121Z,0.00
2022-09-05T00:04:25.346Z,0.00
2022-09-05T00:05:13.923Z,0.00
2022-09-05T00:06:14.485Z,0.00
2022-09-05T00:07:34.346Z,0.00
2022-09-05T00:08:13.975Z,0.00
2022-09-05T00:09:14.755Z,0.00
2022-09-05T00:10:15.064Z,0.00
2022-09-05T00:11:39.423Z,0.00
2022-09-05T00:12:13.307Z,0.00
2022-09-05T00:13:13.221Z,0.00
2022-09-05T00:14:13.340Z,0.00
2022-09-05T00:15:16.598Z,0.76
2022-09-05T00:16:13.688Z,0.44
2022-09-05T00:17:15.327Z,0.00
2022-09-05T00:21:29.169Z,0.00
2022-09-05T00:23:29.115Z,0.00
2022-09-05T00:24:19.903Z,0.00
2022-09-05T00:24:23.041Z,0.00
2022-09-05T00:24:27.354Z,0.00
2022-09-05T00:24:30.370Z,0.00
2022-09-05T00:24:34.504Z,0.00
2022-09-05T00:25:31.093Z,0.00
2022-09-05T00:26:15.561Z,0.00
2022-09-05T00:27:13.655Z,0.00
2022-09-05T00:28:25.908Z,0.00
2022-09-05T00:29:14.897Z,0.00
2022-09-05T00:31:08.073Z,0.00
2022-09-05T00:31:54.044Z,0.00
2022-09-05T00:32:14.084Z,0.00
2022-09-05T00:33:17.025Z,0.00
2022-09-05T00:34:13.755Z,0.00
2022-09-05T00:35:13.737Z,0.00
2022-09-05T00:36:15.199Z,0.00
2022-09-05T00:37:14.977Z,0.00
2022-09-05T00:38:13.359Z,0.00
2022-09-05T00:39:13.964Z,0.00
2022-09-05T00:40:18.649Z,0.00
2022-09-05T00:41:13.211Z,0.00
2022-09-05T00:42:13.667Z,0.00
2022-09-05T00:43:16.599Z,0.00
2022-09-05T00:44:13.491Z,0.00
2022-09-05T00:45:19.531Z,0.00
2022-09-05T00:46:13.077Z,0.00
2022-09-05T00:47:13.015Z,0.00
2022-09-05T00:48:13.499Z,0.00
2022-09-05T00:49:13.340Z,0.00
2022-09-05T00:50:13.465Z,0.00
2022-09-05T00:51:14.920Z,0.00
2022-09-05T00:52:12.842Z,0.00
2022-09-05T00:53:13.814Z,0.00
2022-09-05T00:54:15.751Z,0.00
2022-09-05T00:55:12.896Z,0.00
2022-09-05T00:56:13.671Z,0.00
2022-09-05T00:57:17.967Z,0.00
2022-09-05T00:58:13.829Z,0.12
2022-09-05T00:59:14.068Z,0.24
2022-09-05T01:00:17.356Z,0.32
2022-09-05T01:01:20.989Z,0.00
2022-09-05T01:02:14.138Z,0.00
2022-09-05T01:03:13.371Z,0.00
2022-09-05T01:04:13.430Z,0.12
2022-09-05T01:05:15.258Z,0.40
2022-09-05T01:06:18.866Z,0.00
2022-09-05T01:07:15.162Z,0.32
2022-09-05T01:08:13.299Z,0.00
2022-09-05T01:09:13.328Z,0.00
2022-09-05T01:10:14.025Z,0.00
2022-09-05T01:11:12.909Z,0.00
2022-09-05T01:12:13.121Z,0.00
2022-09-05T01:13:13.222Z,0.00
2022-09-05T01:14:13.230Z,0.00
2022-09-05T01:15:15.168Z,0.00
2022-09-05T01:16:13.274Z,0.00
2022-09-05T01:17:13.415Z,0.00
2022-09-05T01:18:13.272Z,0.00
2022-09-05T01:19:16.003Z,0.00
2022-09-05T01:20:19.059Z,0.00
2022-09-05T01:21:13.584Z,0.00
2022-09-05T01:22:13.771Z,0.00
2022-09-05T01:23:13.684Z,0.00
2022-09-05T01:24:13.843Z,0.00
2022-09-05T01:25:13.777Z,0.00
2022-09-05T01:26:13.907Z,0.00
2022-09-05T01:27:12.893Z,0.00
2022-09-05T01:29:14.394Z,0.00
2022-09-05T01:29:19.020Z,0.00
2022-09-05T01:30:13.554Z,0.00
2022-09-05T01:31:13.912Z,0.00
2022-09-05T01:32:14.504Z,0.00
2022-09-05T01:33:13.473Z,0.00
2022-09-05T01:34:13.718Z,0.00
2022-09-05T01:35:13.400Z,0.00
2022-09-05T01:36:13.282Z,0.00
2022-09-05T01:37:24.847Z,0.60
2022-09-05T01:38:13.535Z,0.00
2022-09-05T01:40:11.659Z,0.00
2022-09-05T01:40:16.224Z,0.00
2022-09-05T01:41:18.559Z,0.00
2022-09-05T01:42:13.662Z,0.00
2022-09-05T01:43:13.599Z,0.00
2022-09-05T01:44:14.634Z,0.00
2022-09-05T01:45:15.865Z,0.00
2022-09-05T01:46:14.289Z,0.00
2022-09-05T01:47:13.722Z,0.00
2022-09-05T01:48:13.657Z,0.00
2022-09-05T01:49:13.879Z,0.00
2022-09-05T01:50:12.967Z,0.00
2022-09-05T01:51:28.007Z,0.00
2022-09-05T01:52:13.695Z,0.00
2022-09-05T01:53:15.030Z,0.00
2022-09-05T01:54:24.122Z,0.00
2022-09-05T01:55:13.447Z,0.00
2022-09-05T01:56:15.081Z,0.00
2022-09-05T01:57:13.055Z,0.00
2022-09-05T01:58:14.653Z,0.00
2022-09-05T01:59:16.207Z,0.00
2022-09-05T02:00:13.202Z,0.16
2022-09-05T02:01:30.008Z,0.00
2022-09-05T02:02:13.700Z,0.00
2022-09-05T02:03:18.905Z,0.00
2022-09-05T02:04:14.550Z,0.00
2022-09-05T02:05:13.649Z,0.00
2022-09-05T02:06:15.102Z,0.08
2022-09-05T02:07:19.887Z,0.00
2022-09-05T02:08:16.363Z,0.16
2022-09-05T02:09:13.300Z,0.16
2022-09-05T02:10:13.210Z,0.52
2022-09-05T02:11:13.410Z,0.08
2022-09-05T02:12:13.536Z,2.08
2022-09-05T02:13:13.480Z,0.48
2022-09-05T02:14:14.262Z,0.00
2022-09-05T02:15:15.102Z,0.00
2022-09-05T02:16:14.752Z,0.00
2022-09-05T02:17:33.514Z,1.16
2022-09-05T02:18:14.256Z,2.28
2022-09-05T02:19:13.476Z,0.64
2022-09-05T02:20:13.340Z,0.00
2022-09-05T02:21:13.588Z,0.00
2022-09-05T02:22:15.034Z,0.00
2022-09-05T02:23:38.947Z,0.00
2022-09-05T02:24:13.951Z,0.00
2022-09-05T02:25:33.503Z,0.00
2022-09-05T02:26:13.027Z,0.20
2022-09-05T02:27:31.574Z,0.00
2022-09-05T02:28:13.760Z,0.08
2022-09-05T02:29:28.490Z,0.00
2022-09-05T02:30:13.982Z,0.00
2022-09-05T02:31:20.022Z,0.00
2022-09-05T02:32:12.755Z,0.00
2022-09-05T02:33:13.998Z,0.00
2022-09-05T02:34:13.014Z,0.12
2022-09-05T02:35:13.780Z,0.00
2022-09-05T02:36:13.067Z,0.00
2022-09-05T02:37:13.310Z,0.00
2022-09-05T02:42:17.209Z,0.00
2022-09-05T02:43:00.106Z,0.00
2022-09-05T02:45:06.088Z,0.00
2022-09-05T02:45:07.530Z,0.00
2022-09-05T02:45:12.796Z,0.00
2022-09-05T02:45:14.819Z,0.00
2022-09-05T02:45:18.445Z,0.00
2022-09-05T02:45:23.799Z,0.00
2022-09-05T02:46:13.453Z,0.12
2022-09-05T02:47:13.765Z,2.00
2022-09-05T02:48:15.360Z,0.00
2022-09-05T02:50:00.194Z,0.12
2022-09-05T02:53:41.245Z,0.00
2022-09-05T02:57:23.785Z,0.00
2022-09-05T02:57:29.017Z,0.00
2022-09-05T02:57:29.794Z,0.00
2022-09-05T02:57:33.716Z,0.00
2022-09-05T02:57:33.866Z,0.00
2022-09-05T02:57:37.967Z,0.00
2022-09-05T02:57:43.490Z,0.00
2022-09-05T02:58:14.521Z,0.00
2022-09-05T02:59:16.957Z,0.00
2022-09-05T03:00:13.839Z,0.00
2022-09-05T03:01:14.042Z,0.00
2022-09-05T03:02:24.926Z,0.00
2022-09-05T03:03:13.864Z,0.00
2022-09-05T03:04:14.142Z,0.00
2022-09-05T03:05:13.436Z,0.00
2022-09-05T03:06:13.286Z,0.24
2022-09-05T03:07:14.367Z,0.00
2022-09-05T03:08:13.306Z,0.00
2022-09-05T03:09:17.344Z,0.60
2022-09-05T03:10:14.801Z,1.00
2022-09-05T03:11:15.483Z,2.04
2022-09-05T03:12:29.259Z,0.16
2022-09-05T03:13:15.192Z,0.00
2022-09-05T03:14:13.218Z,0.00
2022-09-05T03:15:22.597Z,1.60
2022-09-05T03:16:16.631Z,0.12
2022-09-05T03:17:13.645Z,0.00
2022-09-05T03:18:20.256Z,0.52
2022-09-05T03:19:13.700Z,0.48
2022-09-05T03:20:14.215Z,2.28
2022-09-05T03:21:13.182Z,0.24
2022-09-05T03:22:13.069Z,3.68
2022-09-05T03:23:12.944Z,1.20
2022-09-05T03:24:13.152Z,1.84
2022-09-05T03:25:13.369Z,0.16
2022-09-05T03:26:13.517Z,2.72
2022-09-05T03:27:14.830Z,1.08
2022-09-05T03:28:15.756Z,0.24
2022-09-05T03:29:13.539Z,1.28
2022-09-05T03:30:13.423Z,0.00
2022-09-05T03:31:20.298Z,0.16
2022-09-05T03:32:13.926Z,0.84
2022-09-05T03:33:12.719Z,0.80
2022-09-05T03:34:15.123Z,0.84
2022-09-05T03:35:13.340Z,1.72
2022-09-05T03:36:13.390Z,0.88
2022-09-05T03:37:13.672Z,3.64
2022-09-05T03:38:13.728Z,5.60
2022-09-05T03:39:13.922Z,2.60
2022-09-05T03:40:17.959Z,1.00
2022-09-05T03:41:12.920Z,1.60
2022-09-05T03:42:14.696Z,3.20
2022-09-05T03:43:13.497Z,2.64
2022-09-05T03:44:13.432Z,3.36
2022-09-05T03:45:13.509Z,2.60
2022-09-05T03:46:14.739Z,1.08
2022-09-05T03:47:13.731Z,0.00
2022-09-05T03:48:27.891Z,0.00
2022-09-05T03:50:05.857Z,0.24
2022-09-05T03:53:43.684Z,0.16
2022-09-05T03:57:06.447Z,0.00
2022-09-05T03:57:10.815Z,0.88
2022-09-05T03:57:17.339Z,0.00
2022-09-05T03:57:18.607Z,0.00
2022-09-05T03:57:20.585Z,0.00
2022-09-05T03:57:28.306Z,0.00
2022-09-05T03:57:32.296Z,0.32
2022-09-05T03:58:16.772Z,0.00
2022-09-05T03:59:13.924Z,0.00
2022-09-05T04:00:14.301Z,0.00
2022-09-05T04:02:10.241Z,0.00
2022-09-05T04:06:28.762Z,0.00
2022-09-05T04:08:06.830Z,0.00
2022-09-05T04:08:09.417Z,0.00
2022-09-05T04:08:20.390Z,0.12
2022-09-05T04:08:23.789Z,0.88
2022-09-05T04:08:27.806Z,0.00
2022-09-05T04:08:32.385Z,0.96
2022-09-05T04:09:13.406Z,0.28
2022-09-05T04:10:13.668Z,0.00
2022-09-05T04:11:13.710Z,0.04
2022-09-05T04:12:15.239Z,0.00
2022-09-05T04:13:13.143Z,0.00
2022-09-05T04:14:13.233Z,0.00
2022-09-05T04:15:13.071Z,0.00
2022-09-05T04:16:18.153Z,0.00
2022-09-05T04:17:13.454Z,0.00
2022-09-05T04:18:13.396Z,0.00
2022-09-05T04:19:13.495Z,0.00
2022-09-05T04:20:13.378Z,0.00
2022-09-05T04:21:13.354Z,0.08
2022-09-05T04:22:13.239Z,0.04
2022-09-05T04:23:13.064Z,0.00
2022-09-05T04:24:13.280Z,0.00
2022-09-05T04:25:13.825Z,0.00
2022-09-05T04:26:13.965Z,0.00
2022-09-05T04:27:14.285Z,0.00
2022-09-05T04:28:13.218Z,0.00
2022-09-05T04:29:13.334Z,0.56
2022-09-05T04:30:37.864Z,0.00
2022-09-05T04:31:13.010Z,0.00
2022-09-05T04:32:18.986Z,0.00
2022-09-05T04:33:15.351Z,0.00
2022-09-05T04:34:13.260Z,1.08
2022-09-05T04:35:14.880Z,2.16
2022-09-05T04:36:18.147Z,0.00
2022-09-05T04:37:13.358Z,0.00
2022-09-05T04:38:13.649Z,0.00
2022-09-05T04:39:13.640Z,0.00
2022-09-05T04:40:13.730Z,0.00
2022-09-05T04:41:15.216Z,0.00
2022-09-05T04:42:13.072Z,0.00
2022-09-05T04:43:12.929Z,0.00
2022-09-05T04:44:12.816Z,0.00
2022-09-05T04:45:13.742Z,0.00
2022-09-05T04:46:18.331Z,0.00
2022-09-05T04:47:14.249Z,0.00
2022-09-05T04:48:13.728Z,0.00
2022-09-05T04:49:18.733Z,0.00
2022-09-05T04:50:13.421Z,0.00
2022-09-05T04:51:13.307Z,0.00
2022-09-05T04:52:13.808Z,0.00
2022-09-05T04:53:13.881Z,0.00
2022-09-05T04:54:13.334Z,0.00
2022-09-05T04:55:14.777Z,0.00
2022-09-05T04:56:13.647Z,0.00
2022-09-05T04:57:14.030Z,0.00
2022-09-05T04:58:14.797Z,0.00
2022-09-05T05:02:43.216Z,0.00
2022-09-05T05:05:58.462Z,0.00
2022-09-05T05:06:01.124Z,0.00
2022-09-05T05:06:15.113Z,0.24
2022-09-05T05:06:16.462Z,0.88
2022-09-05T05:06:19.739Z,0.16
2022-09-05T05:07:12.990Z,0.00
2022-09-05T05:08:13.144Z,0.00
2022-09-05T05:09:13.175Z,0.00
2022-09-05T05:13:55.322Z,0.00
2022-09-05T05:16:32.546Z,0.00
2022-09-05T05:17:59.037Z,0.00
2022-09-05T05:18:00.262Z,0.00
2022-09-05T05:18:00.300Z,0.24
2022-09-05T05:18:07.039Z,0.00
2022-09-05T05:18:08.956Z,0.05
2022-09-05T05:18:14.682Z,0.00
2022-09-05T05:18:53.170Z,0.00
2022-09-05T05:19:17.214Z,0.00
2022-09-05T05:20:42.384Z,0.00
2022-09-05T05:21:12.941Z,0.36
2022-09-05T05:22:12.836Z,0.00
2022-09-05T05:23:13.718Z,0.00
2022-09-05T05:24:13.750Z,0.24
2022-09-05T05:25:15.160Z,1.20
2022-09-05T05:26:13.041Z,0.36
2022-09-05T05:27:13.083Z,0.00
2022-09-05T05:28:24.811Z,0.00
2022-09-05T05:29:18.838Z,0.16
2022-09-05T05:30:13.820Z,0.00
2022-09-05T05:31:14.075Z,0.00
2022-09-05T05:32:13.122Z,0.00
2022-09-05T05:33:13.261Z,0.00
2022-09-05T05:34:23.891Z,0.00
2022-09-05T05:35:13.168Z,0.00
2022-09-05T05:36:13.578Z,0.00
2022-09-05T05:37:13.825Z,0.20
2022-09-05T05:38:14.744Z,0.00
2022-09-05T05:39:13.544Z,0.00
2022-09-05T05:40:14.676Z,0.00
2022-09-05T05:41:14.689Z,0.00
2022-09-05T05:42:20.571Z,0.00
2022-09-05T05:43:13.428Z,0.00
2022-09-05T05:44:13.777Z,0.52
2022-09-05T05:45:13.823Z,0.00
2022-09-05T05:46:14.433Z,0.00
2022-09-05T05:47:13.419Z,0.00
2022-09-05T05:48:13.247Z,0.00
2022-09-05T05:49:13.172Z,0.00
2022-09-05T05:50:13.130Z,0.00
2022-09-05T05:51:13.094Z,0.00
2022-09-05T05:52:13.035Z,0.00
2022-09-05T05:53:13.068Z,0.00
2022-09-05T05:54:12.916Z,0.00
2022-09-05T05:55:51.398Z,0.00
2022-09-05T05:56:17.020Z,0.00
2022-09-05T05:57:15.243Z,0.00
2022-09-05T05:58:13.436Z,0.00
2022-09-05T05:59:13.721Z,0.00
2022-09-05T06:00:14.912Z,0.00
2022-09-05T06:01:31.674Z,0.00
2022-09-05T06:02:13.234Z,0.00
2022-09-05T06:03:25.308Z,0.00
2022-09-05T06:04:13.479Z,0.00
2022-09-05T06:05:13.447Z,0.00
2022-09-05T06:06:13.551Z,0.00
2022-09-05T06:07:14.942Z,0.00
2022-09-05T06:10:03.786Z,0.00
2022-09-05T06:14:37.475Z,0.00
2022-09-05T06:14:50.125Z,0.00
2022-09-05T06:14:55.185Z,0.00
2022-09-05T06:14:57.885Z,0.00
2022-09-05T06:15:01.178Z,0.00
2022-09-05T06:15:01.624Z,0.00
2022-09-05T06:15:17.786Z,0.24
2022-09-05T06:16:16.579Z,0.00
2022-09-05T06:17:13.453Z,0.00
2022-09-05T06:18:13.376Z,0.00
2022-09-05T06:19:13.353Z,0.00
2022-09-05T06:22:06.139Z,0.00
2022-09-05T06:22:06.675Z,0.00
2022-09-05T06:22:19.269Z,0.00
2022-09-05T06:23:36.585Z,0.00
2022-09-05T06:24:13.138Z,0.00
2022-09-05T06:25:16.806Z,0.00
2022-09-05T06:26:13.514Z,0.00
2022-09-05T06:27:16.450Z,0.00
2022-09-05T06:28:19.158Z,0.00
2022-09-05T06:29:12.852Z,0.00
2022-09-05T06:30:17.103Z,0.00
2022-09-05T06:31:29.426Z,0.00
2022-09-05T06:32:14.111Z,0.00
2022-09-05T06:33:14.922Z,0.00
2022-09-05T06:34:12.854Z,0.00
2022-09-05T06:35:13.592Z,0.00
2022-09-05T06:36:15.245Z,0.00
2022-09-05T06:37:16.685Z,0.00
2022-09-05T06:38:13.900Z,0.00
2022-09-05T06:39:13.987Z,0.08
2022-09-05T06:40:13.007Z,1.32
2022-09-05T06:41:14.729Z,0.00
2022-09-05T06:42:42.543Z,0.00
2022-09-05T06:43:15.565Z,0.00
2022-09-05T06:44:13.621Z,0.00
2022-09-05T06:45:27.068Z,0.00
2022-09-05T06:46:13.192Z,0.00
2022-09-05T06:47:23.760Z,0.00
2022-09-05T06:48:23.829Z,0.00
2022-09-05T06:49:33.375Z,0.00
2022-09-05T06:50:27.414Z,0.32
2022-09-05T06:51:13.221Z,0.84
2022-09-05T06:52:29.636Z,1.92
2022-09-05T06:53:19.746Z,2.56
2022-09-05T06:54:15.040Z,0.72
2022-09-05T06:55:13.266Z,1.56
2022-09-05T06:56:26.003Z,1.84
2022-09-05T06:57:15.568Z,3.28
2022-09-05T06:58:15.091Z,0.40
2022-09-05T06:59:13.052Z,0.88
2022-09-05T07:00:17.621Z,1.44
2022-09-05T07:01:15.202Z,0.96
2022-09-05T07:02:13.946Z,0.60
2022-09-05T07:03:13.561Z,0.20
2022-09-05T07:04:54.020Z,0.04
2022-09-05T07:05:38.561Z,0.16
2022-09-05T07:06:19.478Z,0.12
2022-09-05T07:07:17.018Z,1.12
2022-09-05T07:08:25.123Z,0.00
2022-09-05T07:09:13.493Z,0.00
2022-09-05T07:10:36.850Z,0.84
2022-09-05T07:11:16.922Z,0.00
2022-09-05T07:12:13.519Z,3.40
2022-09-05T07:13:13.359Z,0.92
2022-09-05T07:14:13.346Z,0.48
2022-09-05T07:15:17.313Z,1.36
2022-09-05T07:16:15.294Z,0.12
2022-09-05T07:17:13.385Z,0.00
2022-09-05T07:18:13.324Z,0.00
2022-09-05T07:19:14.947Z,0.00
2022-09-05T07:20:16.656Z,0.00
2022-09-05T07:21:17.370Z,0.00
2022-09-05T07:22:41.742Z,0.16
2022-09-05T07:23:52.729Z,0.00
2022-09-05T07:24:16.905Z,1.56
2022-09-05T07:25:18.234Z,1.24
2022-09-05T07:26:51.368Z,2.52
2022-09-05T07:27:16.531Z,1.56
2022-09-05T07:28:29.806Z,1.24
2022-09-05T07:29:16.599Z,0.00
2022-09-05T07:30:16.504Z,0.04
2022-09-05T07:31:13.509Z,0.68
2022-09-05T07:32:15.001Z,0.84
2022-09-05T07:33:16.030Z,0.08
2022-09-05T07:34:20.573Z,2.40
2022-09-05T07:35:15.412Z,2.00
2022-09-05T07:36:16.022Z,0.52
2022-09-05T07:37:15.285Z,0.60
2022-09-05T07:38:13.090Z,2.16
2022-09-05T07:39:28.427Z,0.44
2022-09-05T07:41:15.212Z,0.04
2022-09-05T07:42:17.489Z,0.96
2022-09-05T07:43:18.585Z,1.36
2022-09-05T07:44:14.447Z,1.44
2022-09-05T07:45:15.053Z,3.24
2022-09-05T07:46:17.758Z,2.88
2022-09-05T07:47:13.761Z,3.84
2022-09-05T07:48:13.623Z,3.48
2022-09-05T07:49:13.460Z,3.84
2022-09-05T07:54:07.370Z,1.72
2022-09-05T07:56:50.434Z,0.80
2022-09-05T07:56:56.644Z,3.08
2022-09-05T07:56:58.767Z,0.16
2022-09-05T07:57:00.801Z,0.92
2022-09-05T07:57:01.706Z,2.16
2022-09-05T07:57:10.214Z,2.92
2022-09-05T07:57:30.097Z,1.52
2022-09-05T07:58:16.786Z,0.96
2022-09-05T07:59:16.828Z,4.44
2022-09-05T08:00:25.776Z,3.72
2022-09-05T08:01:16.441Z,2.80
2022-09-05T08:02:17.662Z,5.08
2022-09-05T08:03:15.166Z,1.68
2022-09-05T08:04:13.294Z,1.40
2022-09-05T08:05:14.984Z,1.68
2022-09-05T08:06:16.311Z,3.32
2022-09-05T08:07:47.117Z,0.12
2022-09-05T08:08:14.711Z,2.04
2022-09-05T08:10:07.013Z,2.36
2022-09-05T08:10:15.370Z,3.24
2022-09-05T08:11:23.362Z,6.00
2022-09-05T08:12:15.293Z,3.24
2022-09-05T08:13:24.666Z,2.28
2022-09-05T08:14:41.746Z,1.72
2022-09-05T08:15:17.600Z,5.76
2022-09-05T08:16:19.446Z,0.76
2022-09-05T08:17:16.658Z,0.32
2022-09-05T08:18:13.800Z,0.80
2022-09-05T08:19:15.159Z,3.08
2022-09-05T08:20:15.199Z,3.72
2022-09-05T08:21:16.450Z,7.88
2022-09-05T08:22:15.499Z,4.64
2022-09-05T08:23:17.373Z,2.33
2022-09-05T08:24:16.489Z,0.80
2022-09-05T08:25:14.969Z,3.12
2022-09-05T08:26:13.746Z,2.24
2022-09-05T08:27:17.982Z,0.88
2022-09-05T08:28:17.630Z,3.44
2022-09-05T08:29:13.752Z,0.96
2022-09-05T08:30:26.283Z,0.68
2022-09-05T08:31:14.899Z,0.64
2022-09-05T08:32:18.473Z,3.12
2022-09-05T08:33:18.856Z,1.36
2022-09-05T08:34:13.911Z,0.36
2022-09-05T08:35:17.195Z,1.16
2022-09-05T08:36:17.623Z,0.48
2022-09-05T08:37:21.044Z,4.92
2022-09-05T08:38:19.018Z,2.88
2022-09-05T08:39:17.421Z,0.12
2022-09-05T08:40:17.107Z,0.32
2022-09-05T08:41:16.598Z,2.16
2022-09-05T08:42:14.720Z,6.40
2022-09-05T08:46:12.622Z,8.24
2022-09-05T08:46:41.709Z,1.08
2022-09-05T08:46:42.438Z,3.16
2022-09-05T08:46:46.634Z,3.36
2022-09-05T08:47:15.497Z,5.28
2022-09-05T08:48:18.026Z,4.56
2022-09-05T08:49:21.473Z,1.48
2022-09-05T08:50:15.993Z,5.96
2022-09-05T08:51:17.078Z,8.64
2022-09-05T08:52:15.590Z,1.72
2022-09-05T08:53:32.913Z,0.24
2022-09-05T08:54:18.374Z,0.32
2022-09-05T08:55:18.949Z,1.92
2022-09-05T08:56:17.032Z,0.92
2022-09-05T08:57:15.276Z,0.00
2022-09-05T08:58:15.656Z,0.52
2022-09-05T08:59:31.582Z,15.52
2022-09-05T09:00:20.577Z,11.56
2022-09-05T09:01:16.438Z,12.64
2022-09-05T09:02:48.054Z,2.12
2022-09-05T09:03:17.075Z,0.84
2022-09-05T09:04:26.709Z,1.20
2022-09-05T09:05:22.922Z,0.40
2022-09-05T09:06:17.336Z,1.64
2022-09-05T09:07:46.986Z,4.04
2022-09-05T09:08:15.927Z,3.00
2022-09-05T09:09:16.278Z,3.64
2022-09-05T09:10:25.743Z,4.84
2022-09-05T09:11:19.447Z,1.04
2022-09-05T09:12:16.880Z,1.32
2022-09-05T09:13:17.822Z,3.08
2022-09-05T09:14:20.145Z,3.44
2022-09-05T09:15:17.605Z,8.56
2022-09-05T09:16:15.122Z,9.20
2022-09-05T09:17:15.767Z,8.44
2022-09-05T09:18:19.360Z,8.28
2022-09-05T09:19:17.646Z,5.52
2022-09-05T09:20:18.191Z,6.48
2022-09-05T09:21:17.428Z,6.48
2022-09-05T09:22:17.157Z,7.48
2022-09-05T09:23:29.047Z,10.52
2022-09-05T09:24:16.723Z,11.12
2022-09-05T09:25:21.093Z,9.80
2022-09-05T09:26:16.094Z,14.20
2022-09-05T09:27:19.087Z,1.76
2022-09-05T09:28:46.807Z,0.64
2022-09-05T09:29:17.067Z,2.20
2022-09-05T09:30:15.572Z,3.36
2022-09-05T09:31:16.464Z,3.92
2022-09-05T09:32:18.120Z,0.92
2022-09-05T09:33:19.131Z,2.08
2022-09-05T09:34:18.865Z,0.88
2022-09-05T09:35:18.266Z,4.20
2022-09-05T09:36:17.422Z,1.52
2022-09-05T09:37:18.156Z,3.20
2022-09-05T09:38:16.835Z,9.40
2022-09-05T09:39:39.355Z,11.36
2022-09-05T09:40:19.857Z,5.88
2022-09-05T09:41:19.095Z,9.40
2022-09-05T09:42:33.712Z,1.88
2022-09-05T09:43:18.632Z,0.32
2022-09-05T09:44:18.309Z,0.80
2022-09-05T09:45:22.505Z,2.64
2022-09-05T09:46:18.505Z,1.52
2022-09-05T09:47:17.954Z,4.12
2022-09-05T09:48:14.946Z,2.16
2022-09-05T09:49:23.012Z,2.72
2022-09-05T09:50:18.045Z,2.04
2022-09-05T09:51:16.928Z,4.12
2022-09-05T09:52:20.935Z,4.72
2022-09-05T09:53:17.799Z,0.76
2022-09-05T09:54:20.763Z,0.48
2022-09-05T09:55:21.410Z,0.00
2022-09-05T09:56:20.132Z,0.00
2022-09-05T09:57:16.549Z,3.16
2022-09-05T09:58:19.708Z,1.96
2022-09-05T09:59:20.253Z,0.00
2022-09-05T10:00:18.613Z,0.56
2022-09-05T10:01:21.524Z,2.76
2022-09-05T10:03:18.505Z,8.84
2022-09-05T10:05:01.309Z,6.44
2022-09-05T10:09:56.563Z,1.48
2022-09-05T10:10:34.785Z,0.60
2022-09-05T10:10:45.152Z,2.48
2022-09-05T10:10:47.955Z,1.32
2022-09-05T10:10:54.671Z,2.44
2022-09-05T10:10:58.571Z,1.56
2022-09-05T10:11:07.995Z,0.00
2022-09-05T10:11:51.967Z,4.12
2022-09-05T10:12:18.708Z,4.24
2022-09-05T10:13:19.832Z,4.28
2022-09-05T10:14:42.134Z,3.92
2022-09-05T10:15:31.161Z,4.48
2022-09-05T10:16:18.389Z,0.00
2022-09-05T10:17:19.159Z,1.68
2022-09-05T10:18:20.411Z,7.52
2022-09-05T10:19:16.454Z,6.44
2022-09-05T10:20:18.604Z,0.12
2022-09-05T10:21:19.070Z,1.89
2022-09-05T10:22:37.759Z,9.60
2022-09-05T10:23:17.600Z,3.20
2022-09-05T10:24:17.556Z,10.80
2022-09-05T10:25:20.009Z,15.00
2022-09-05T10:26:17.387Z,13.16
2022-09-05T10:27:19.542Z,12.08
2022-09-05T10:28:19.305Z,3.32
2022-09-05T10:29:37.164Z,0.48
2022-09-05T10:30:18.071Z,0.40
2022-09-05T10:33:33.796Z,0.00
2022-09-05T10:35:10.444Z,2.88
2022-09-05T10:35:10.839Z,2.44
2022-09-05T10:35:17.458Z,1.12
2022-09-05T10:35:22.492Z,1.88
2022-09-05T10:36:17.696Z,4.16
2022-09-05T10:37:18.278Z,20.08
2022-09-05T10:38:16.603Z,10.08
2022-09-05T10:39:19.302Z,2.92
2022-09-05T10:40:19.668Z,0.00
2022-09-05T10:41:22.760Z,0.00
2022-09-05T10:42:27.394Z,1.98
2022-09-05T10:43:17.979Z,6.00
2022-09-05T10:44:19.382Z,1.20
2022-09-05T10:45:17.601Z,6.24
2022-09-05T10:46:46.655Z,3.68
2022-09-05T10:47:19.144Z,3.08
2022-09-05T10:48:19.195Z,4.96
2022-09-05T10:49:16.512Z,9.00
2022-09-05T10:50:20.143Z,4.40
2022-09-05T10:51:27.352Z,16.92
2022-09-05T10:52:19.829Z,12.76
2022-09-05T10:53:19.739Z,10.04
2022-09-05T10:54:19.200Z,6.76
2022-09-05T10:55:18.170Z,8.12
2022-09-05T10:56:17.813Z,2.80
2022-09-05T10:57:19.629Z,6.80
2022-09-05T10:58:31.856Z,9.56
2022-09-05T11:00:36.821Z,10.52
2022-09-05T11:02:19.091Z,19.72
2022-09-05T11:02:27.304Z,22.96
2022-09-05T11:02:29.117Z,15.04
2022-09-05T11:03:22.887Z,10.92
2022-09-05T11:04:19.594Z,3.24
2022-09-05T11:05:19.490Z,6.36
2022-09-05T11:06:24.622Z,17.64
2022-09-05T11:07:29.444Z,9.28
2022-09-05T11:08:19.546Z,1.40
2022-09-05T11:09:21.436Z,4.56
2022-09-05T11:10:18.287Z,12.40
2022-09-05T11:11:26.122Z,5.88
2022-09-05T11:12:19.053Z,4.16
2022-09-05T11:13:18.946Z,3.68
2022-09-05T11:14:26.385Z,9.96
2022-09-05T11:15:18.637Z,7.16
2022-09-05T11:16:20.028Z,8.16
2022-09-05T11:17:18.569Z,12.76
2022-09-05T11:18:19.528Z,12.72
2022-09-05T11:19:20.564Z,13.72
2022-09-05T11:20:22.488Z,7.68
2022-09-05T11:21:19.757Z,10.36
2022-09-05T11:22:22.362Z,9.56
2022-09-05T11:23:19.456Z,5.00
2022-09-05T11:24:24.227Z,4.92
2022-09-05T11:25:18.583Z,5.88
2022-09-05T11:26:19.679Z,5.72
2022-09-05T11:27:25.533Z,11.00
2022-09-05T11:28:17.439Z,16.48
2022-09-05T11:29:20.194Z,12.72
2022-09-05T11:30:28.699Z,13.44
2022-09-05T11:31:18.375Z,16.16
2022-09-05T11:37:27.330Z,7.44
2022-09-05T11:39:24.018Z,17.96
2022-09-05T11:39:52.769Z,11.72
2022-09-05T11:39:52.769Z,14.76
2022-09-05T11:39:54.428Z,15.28
2022-09-05T11:39:55.344Z,9.04
2022-09-05T11:40:04.352Z,11.68
2022-09-05T11:40:08.463Z,7.12
2022-09-05T11:40:30.124Z,14.40
2022-09-05T11:42:18.884Z,9.12
2022-09-05T11:43:18.357Z,12.80
2022-09-05T11:44:25.148Z,13.44
2022-09-05T11:45:18.711Z,11.48
2022-09-05T11:46:25.629Z,10.80
2022-09-05T11:47:30.201Z,18.06
2022-09-05T11:48:19.981Z,16.88
2022-09-05T11:49:18.831Z,17.52
2022-09-05T11:50:18.627Z,10.72
2022-09-05T11:51:18.000Z,18.40
2022-09-05T11:52:18.966Z,16.40
2022-09-05T11:53:16.974Z,10.48
2022-09-05T11:54:16.901Z,7.68
2022-09-05T11:55:21.177Z,2.44
2022-09-05T11:56:19.188Z,0.48
2022-09-05T11:57:33.581Z,6.96
2022-09-05T11:58:44.297Z,0.92
2022-09-05T11:59:33.471Z,6.48
2022-09-05T12:00:32.185Z,2.24
2022-09-05T12:01:42.742Z,1.76
2022-09-05T12:02:23.316Z,7.40
2022-09-05T12:03:53.551Z,9.32
2022-09-05T12:04:17.702Z,2.68
2022-09-05T12:05:49.921Z,4.44
2022-09-05T12:06:18.749Z,4.76
2022-09-05T12:07:31.872Z,3.68
2022-09-05T12:08:17.538Z,4.08
2022-09-05T12:09:23.833Z,4.36
2022-09-05T12:10:46.725Z,6.38
2022-09-05T12:11:21.911Z,9.12
2022-09-05T12:12:39.269Z,5.96
2022-09-05T12:13:51.329Z,4.48
2022-09-05T12:14:21.218Z,6.72
2022-09-05T12:15:19.021Z,6.00
2022-09-05T12:16:17.474Z,2.40
2022-09-05T12:17:17.192Z,4.76
2022-09-05T12:18:19.554Z,2.80
2022-09-05T12:19:20.065Z,1.12
2022-09-05T12:20:22.149Z,0.84
2022-09-05T12:21:19.483Z,2.72
2022-09-05T12:22:22.291Z,2.88
2022-09-05T12:23:31.184Z,1.48
2022-09-05T12:25:24.908Z,0.24
2022-09-05T12:27:36.476Z,7.84
2022-09-05T12:27:36.622Z,0.00
2022-09-05T12:27:38.043Z,3.00
2022-09-05T12:29:27.700Z,9.32
2022-09-05T12:29:29.085Z,7.68
2022-09-05T12:30:18.215Z,8.56
2022-09-05T12:32:31.020Z,6.36
2022-09-05T12:33:43.744Z,8.24
2022-09-05T12:35:19.834Z,8.56
2022-09-05T12:36:02.195Z,12.68
2022-09-05T12:36:12.192Z,10.32
2022-09-05T12:40:27.559Z,5.20
2022-09-05T12:40:44.819Z,14.24
2022-09-05T12:40:56.188Z,16.08
2022-09-05T12:41:35.078Z,9.72
2022-09-05T12:41:37.847Z,9.44
2022-09-05T12:41:42.851Z,1.20
2022-09-05T12:42:24.166Z,7.12
2022-09-05T12:44:36.622Z,15.84
2022-09-05T12:44:42.203Z,12.08
2022-09-05T12:45:19.484Z,11.88
2022-09-05T12:46:24.467Z,5.76
2022-09-05T12:47:21.088Z,2.48
2022-09-05T12:48:18.231Z,2.68
2022-09-05T12:49:18.318Z,5.68
2022-09-05T12:50:19.281Z,9.72
2022-09-05T12:51:46.773Z,4.44
2022-09-05T12:52:18.549Z,3.12
2022-09-05T12:53:18.106Z,3.40
2022-09-05T12:54:33.639Z,0.80
2022-09-05T12:55:19.661Z,0.36
2022-09-05T12:56:42.970Z,0.56
2022-09-05T13:02:55.479Z,0.04
2022-09-05T13:02:56.547Z,0.16
2022-09-05T13:03:01.346Z,3.96
2022-09-05T13:03:03.320Z,4.80
2022-09-05T13:03:11.190Z,0.36
2022-09-05T13:03:13.145Z,2.08
2022-09-05T13:03:28.095Z,0.00
2022-09-05T13:04:21.694Z,0.76
2022-09-05T13:05:18.831Z,1.96
2022-09-05T13:06:24.911Z,1.28
2022-09-05T13:07:18.828Z,0.96
2022-09-05T13:08:18.550Z,2.92
2022-09-05T13:09:18.440Z,3.32
2022-09-05T13:14:46.119Z,2.32
2022-09-05T13:14:48.633Z,0.00
2022-09-05T13:14:52.974Z,0.48
2022-09-05T13:14:54.034Z,0.56
2022-09-05T13:14:59.361Z,0.76
2022-09-05T13:15:23.556Z,2.28
2022-09-05T13:16:23.001Z,0.44
2022-09-05T13:17:19.296Z,0.00
2022-09-05T13:18:18.387Z,0.00
2022-09-05T13:19:18.715Z,0.92
2022-09-05T13:20:21.607Z,0.00